Time;durP1;ratioP1;P1;durP2;ratioP2;P2;SDS_P1;SDS_P2;PMS_P1;PMS_P2;Temp;Humidity;BMP_temperature;BMP_pressure;BME280_temperature;BME280_humidity;BME280_pressure;Samples;Min_cycle;Max_cycle;Signal;HPM_P1;HPM_P2
2021/12/11 00:01:18;;;;;;;100.93;45.92;;;;;;;;;;4900051;29;20088;-79
2021/12/11 00:04:33;;;;;;;97.35;47.30;;;;;;;;;;4900135;29;20044;-78
2021/12/11 00:07:54;;;;;;;109.32;52.60;;;;;;;;;;4895466;29;20037;-79
2021/12/11 00:10:46;;;;;;;126.95;58.83;;;;;;;;;;4862980;29;20020;-78
2021/12/11 00:16:44;;;;;;;101.38;46.05;;;;;;;;;;4861941;29;20051;-79
2021/12/11 00:19:19;;;;;;;106.32;48.70;;;;;;;;;;4857262;29;20041;-78
2021/12/11 00:22:31;;;;;;;122.43;51.63;;;;;;;;;;4877852;29;20033;-79
2021/12/11 00:25:19;;;;;;;137.65;51.55;;;;;;;;;;4881888;29;20037;-79
2021/12/11 00:28:06;;;;;;;147.77;57.05;;;;;;;;;;4870801;29;20111;-78
2021/12/11 00:31:17;;;;;;;163.30;55.05;;;;;;;;;;4827896;29;20031;-78
2021/12/11 00:33:51;;;;;;;155.50;52.42;;;;;;;;;;4824382;29;20047;-78
2021/12/11 00:36:39;;;;;;;157.77;56.50;;;;;;;;;;4811108;29;20031;-78
2021/12/11 00:39:30;;;;;;;170.77;54.78;;;;;;;;;;4830707;29;20019;-78
2021/12/11 00:42:21;;;;;;;155.75;53.28;;;;;;;;;;5052240;23;20025;-79
2021/12/11 00:44:54;;;;;;;189.18;59.22;;;;;;;;;;4933719;29;20059;-78
2021/12/11 00:50:40;;;;;;;203.40;55.65;;;;;;;;;;4942429;29;20085;-79
2021/12/11 00:53:19;;;;;;;193.57;52.50;;;;;;;;;;4953283;29;20036;-78
2021/12/11 00:56:37;;;;;;;192.10;54.00;;;;;;;;;;4922016;29;20025;-79
2021/12/11 00:59:27;;;;;;;201.00;51.53;;;;;;;;;;4899097;29;20044;-79
2021/12/11 01:02:08;;;;;;;202.68;52.80;;;;;;;;;;4876362;29;20041;-78
2021/12/11 01:05:42;;;;;;;177.27;50.33;;;;;;;;;;4882599;29;20038;-78
2021/12/11 01:08:39;;;;;;;193.82;51.25;;;;;;;;;;4860926;29;20054;-79
2021/12/11 01:11:34;;;;;;;174.00;49.25;;;;;;;;;;4828027;29;20061;-78
2021/12/11 01:14:39;;;;;;;187.30;47.00;;;;;;;;;;4813494;29;20513;-79
2021/12/11 01:18:02;;;;;;;218.88;51.42;;;;;;;;;;4829353;29;20073;-78
2021/12/11 01:27:18;;;;;;;239.32;56.10;;;;;;;;;;4774451;29;20054;-77
2021/12/11 01:29:47;;;;;;;216.07;56.03;;;;;;;;;;4730594;30;20022;-78
2021/12/11 01:32:38;;;;;;;193.57;51.67;;;;;;;;;;4688414;30;20106;-79
2021/12/11 01:35:21;;;;;;;180.68;48.88;;;;;;;;;;4673107;30;20033;-78
2021/12/11 01:38:07;;;;;;;181.35;52.03;;;;;;;;;;4717170;30;20057;-79
2021/12/11 01:40:55;;;;;;;180.43;56.33;;;;;;;;;;4716753;30;20107;-78
2021/12/11 01:44:21;;;;;;;195.25;53.08;;;;;;;;;;4730314;30;20057;-78
2021/12/11 01:47:14;;;;;;;176.77;51.28;;;;;;;;;;4735634;30;20053;-79
2021/12/11 01:50:09;;;;;;;189.52;52.75;;;;;;;;;;4722024;30;20052;-79
2021/12/11 01:53:15;;;;;;;197.20;59.13;;;;;;;;;;4810466;29;20040;-79
2021/12/11 01:56:12;;;;;;;204.07;55.50;;;;;;;;;;4810238;29;20087;-78
2021/12/11 01:59:12;;;;;;;167.80;50.45;;;;;;;;;;4796419;30;20027;-79
2021/12/11 02:01:54;;;;;;;161.80;50.30;;;;;;;;;;4826065;29;20053;-79
2021/12/11 02:04:40;;;;;;;159.27;50.70;;;;;;;;;;4858329;29;20100;-78
2021/12/11 02:07:32;;;;;;;176.18;53.90;;;;;;;;;;4863599;29;20080;-80
2021/12/11 02:10:14;;;;;;;187.98;55.03;;;;;;;;;;4811977;29;20050;-78
2021/12/11 02:13:09;;;;;;;197.25;57.15;;;;;;;;;;4821428;29;20019;-78
2021/12/11 02:19:07;;;;;;;190.45;55.53;;;;;;;;;;5425464;23;20094;-79
2021/12/11 02:22:28;;;;;;;186.93;56.35;;;;;;;;;;4939379;29;20040;-78
2021/12/11 02:25:08;;;;;;;221.43;59.05;;;;;;;;;;4939309;29;20028;-77
2021/12/11 02:30:36;;;;;;;180.30;52.95;;;;;;;;;;5234708;23;20122;-77
2021/12/11 02:33:25;;;;;;;160.77;50.90;;;;;;;;;;4944161;29;20047;-78
2021/12/11 02:36:11;;;;;;;148.82;47.50;;;;;;;;;;4966497;28;20042;-78
2021/12/11 02:38:59;;;;;;;188.50;55.22;;;;;;;;;;4978185;28;20062;-79
2021/12/11 02:41:56;;;;;;;168.05;53.10;;;;;;;;;;4959501;29;20103;-79
2021/12/11 02:44:57;;;;;;;167.05;51.17;;;;;;;;;;4972498;29;20059;-78
2021/12/11 02:47:32;;;;;;;198.05;56.38;;;;;;;;;;4899540;29;20049;-78
2021/12/11 02:53:40;;;;;;;177.82;53.60;;;;;;;;;;4828968;29;20083;-78
2021/12/11 02:56:44;;;;;;;173.05;48.80;;;;;;;;;;4843338;29;20103;-79
2021/12/11 02:59:43;;;;;;;142.98;46.60;;;;;;;;;;4821247;29;20027;-78
2021/12/11 03:02:42;;;;;;;146.00;47.30;;;;;;;;;;4841833;29;20031;-79
2021/12/11 03:06:19;;;;;;;126.93;43.42;;;;;;;;;;4844336;29;20129;-78
2021/12/11 03:08:40;;;;;;;145.80;47.80;;;;;;;;;;4844028;29;20082;-78
2021/12/11 03:11:37;;;;;;;154.43;50.75;;;;;;;;;;4830359;29;20106;-78
2021/12/11 03:14:58;;;;;;;157.05;48.67;;;;;;;;;;4829940;29;20045;-78
2021/12/11 03:17:43;;;;;;;157.48;50.25;;;;;;;;;;4822837;29;20101;-79
2021/12/11 03:20:52;;;;;;;165.48;48.97;;;;;;;;;;4814053;29;20066;-78
2021/12/11 03:24:08;;;;;;;170.60;49.05;;;;;;;;;;4822619;29;20034;-78
2021/12/11 03:29:36;;;;;;;185.30;51.10;;;;;;;;;;4881204;29;20145;-78
2021/12/11 03:32:17;;;;;;;159.95;46.13;;;;;;;;;;4811722;29;20043;-79
2021/12/11 03:35:11;;;;;;;162.63;45.67;;;;;;;;;;4828572;29;20027;-79
2021/12/11 03:38:15;;;;;;;136.23;42.60;;;;;;;;;;4780544;30;20084;-78
2021/12/11 03:41:07;;;;;;;;;;;;;;;;;;4721907;30;20057;-79
2021/12/11 03:44:33;;;;;;;123.35;41.20;;;;;;;;;;4741279;30;19911;-79
2021/12/11 03:51:00;;;;;;;137.65;39.92;;;;;;;;;;4704684;30;20060;-78
2021/12/11 03:53:55;;;;;;;142.10;42.50;;;;;;;;;;4703111;30;20076;-79
2021/12/11 03:57:11;;;;;;;140.02;42.22;;;;;;;;;;4687779;30;20035;-79
2021/12/11 04:00:19;;;;;;;170.25;46.08;;;;;;;;;;4686799;30;20045;-79
2021/12/11 04:03:28;;;;;;;166.18;45.88;;;;;;;;;;4704038;30;20024;-78
2021/12/11 04:06:19;;;;;;;197.38;49.97;;;;;;;;;;4692059;30;20042;-78
2021/12/11 04:09:21;;;;;;;193.32;50.53;;;;;;;;;;4717589;30;20020;-79
2021/12/11 04:12:09;;;;;;;189.32;50.63;;;;;;;;;;4734704;30;20035;-78
2021/12/11 04:17:55;;;;;;;162.57;48.67;;;;;;;;;;5225908;23;20082;-79
2021/12/11 04:21:02;;;;;;;167.68;46.55;;;;;;;;;;4944969;28;20019;-78
2021/12/11 04:23:38;;;;;;;217.30;46.63;;;;;;;;;;4962510;28;20046;-78
2021/12/11 04:31:36;;;;;;;175.85;45.13;;;;;;;;;;6041558;23;20053;-79
2021/12/11 04:34:22;;;;;;;180.70;40.15;;;;;;;;;;4957661;28;20042;-78
2021/12/11 04:37:17;;;;;;;230.98;41.58;;;;;;;;;;4956757;28;20073;-78
2021/12/11 04:40:14;;;;;;;268.92;40.83;;;;;;;;;;4959073;28;20039;-78
2021/12/11 04:43:41;;;;;;;331.70;45.47;;;;;;;;;;4938637;29;20067;-78
2021/12/11 04:46:48;;;;;;;172.77;38.83;;;;;;;;;;4937179;29;20060;-79
2021/12/11 04:49:52;;;;;;;159.35;38.40;;;;;;;;;;4937781;29;20116;-78
2021/12/11 04:52:55;;;;;;;220.52;41.55;;;;;;;;;;4949909;29;20028;-78
2021/12/11 05:05:08;;;;;;;210.75;36.90;;;;;;;;;;4887407;29;20048;-78
2021/12/11 05:07:43;;;;;;;326.02;33.40;;;;;;;;;;4868766;29;20063;-78
2021/12/11 05:10:36;;;;;;;349.15;36.83;;;;;;;;;;4858824;29;20135;-78
2021/12/11 05:13:24;;;;;;;121.65;23.80;;;;;;;;;;4871096;29;20227;-79
2021/12/11 05:15:56;;;;;;;142.40;30.88;;;;;;;;;;4875718;29;20045;-78
2021/12/11 05:18:24;;;;;;;96.68;30.40;;;;;;;;;;4871639;29;20054;-78
2021/12/11 05:20:57;;;;;;;91.25;25.67;;;;;;;;;;4868189;29;20038;-78
2021/12/11 05:23:25;;;;;;;146.07;34.38;;;;;;;;;;4872011;29;20061;-78
2021/12/11 05:25:57;;;;;;;174.40;31.38;;;;;;;;;;4866755;29;20069;-78
2021/12/11 05:28:25;;;;;;;250.95;34.45;;;;;;;;;;4847395;29;20123;-78
2021/12/11 05:30:53;;;;;;;368.40;36.80;;;;;;;;;;4821815;29;20026;-78
2021/12/11 05:33:23;;;;;;;358.90;39.42;;;;;;;;;;4820832;29;20095;-78
2021/12/11 05:35:54;;;;;;;228.98;34.45;;;;;;;;;;4862228;29;20046;-78
2021/12/11 05:38:22;;;;;;;192.32;36.25;;;;;;;;;;4854528;29;20038;-79
2021/12/11 05:40:51;;;;;;;204.73;33.53;;;;;;;;;;4906852;29;20079;-78
2021/12/11 05:43:23;;;;;;;274.45;35.10;;;;;;;;;;4931394;29;20060;-77
2021/12/11 05:46:07;;;;;;;341.52;34.00;;;;;;;;;;4944132;29;20064;-78
2021/12/11 05:48:34;;;;;;;234.38;35.45;;;;;;;;;;4938120;29;20048;-78
2021/12/11 05:54:09;;;;;;;261.98;32.63;;;;;;;;;;4897755;29;20027;-78
2021/12/11 05:56:55;;;;;;;215.38;35.05;;;;;;;;;;4956835;29;20037;-78
2021/12/11 05:59:24;;;;;;;282.13;33.10;;;;;;;;;;4934108;29;20036;-78
2021/12/11 06:02:17;;;;;;;220.38;30.20;;;;;;;;;;4939639;29;20032;-78
2021/12/11 06:04:48;;;;;;;149.43;27.17;;;;;;;;;;4949367;28;20032;-78
2021/12/11 06:07:56;;;;;;;204.13;29.77;;;;;;;;;;4957973;28;20027;-79
2021/12/11 06:10:47;;;;;;;166.90;27.83;;;;;;;;;;4967476;29;20055;-78
2021/12/11 06:13:24;;;;;;;226.27;28.42;;;;;;;;;;4956715;29;20039;-77
2021/12/11 06:15:52;;;;;;;201.43;30.90;;;;;;;;;;4949093;29;20020;-73
2021/12/11 06:18:19;;;;;;;152.80;30.35;;;;;;;;;;4946079;29;20031;-73
2021/12/11 06:20:47;;;;;;;187.70;32.83;;;;;;;;;;4938865;29;20039;-73
2021/12/11 06:23:13;;;;;;;224.90;33.40;;;;;;;;;;4947063;29;20028;-71
2021/12/11 06:25:41;;;;;;;239.38;33.47;;;;;;;;;;4954548;29;20043;-78
2021/12/11 06:28:24;;;;;;;201.77;31.60;;;;;;;;;;4953466;29;20004;-80
2021/12/11 06:30:58;;;;;;;235.50;31.85;;;;;;;;;;4956120;29;20032;-78
2021/12/11 06:33:33;;;;;;;311.55;44.47;;;;;;;;;;4942827;29;20058;-79
2021/12/11 06:36:31;;;;;;;236.55;39.63;;;;;;;;;;4955983;29;20019;-78
2021/12/11 06:39:24;;;;;;;256.08;38.35;;;;;;;;;;4934261;29;20094;-78
2021/12/11 06:41:56;;;;;;;241.63;42.10;;;;;;;;;;4915458;29;20225;-79
2021/12/11 06:49:44;;;;;;;232.20;39.50;;;;;;;;;;5842713;23;20055;-79
2021/12/11 06:52:17;;;;;;;279.75;39.70;;;;;;;;;;4953277;29;20028;-78
2021/12/11 06:54:43;;;;;;;287.83;43.00;;;;;;;;;;4960901;29;20106;-77
2021/12/11 06:57:12;;;;;;;258.02;40.47;;;;;;;;;;4962458;29;20027;-76
2021/12/11 06:59:38;;;;;;;416.63;61.60;;;;;;;;;;4955877;29;20031;-79
2021/12/11 07:02:05;;;;;;;241.07;42.08;;;;;;;;;;4951859;29;20020;-78
2021/12/11 07:04:32;;;;;;;236.80;39.08;;;;;;;;;;4958920;29;20039;-76
2021/12/11 07:06:58;;;;;;;260.63;38.38;;;;;;;;;;4962567;28;20031;-77
2021/12/11 07:09:25;;;;;;;278.80;44.35;;;;;;;;;;4962604;29;20031;-76
2021/12/11 07:11:52;;;;;;;325.08;44.33;;;;;;;;;;4953731;29;20070;-77
2021/12/11 07:14:19;;;;;;;321.25;50.35;;;;;;;;;;4954632;29;20047;-78
2021/12/11 07:27:09;;;;;;;305.08;46.50;;;;;;;;;;5702825;23;20119;-76
2021/12/11 07:35:29;;;;;;;359.77;49.30;;;;;;;;;;5730518;23;20533;-76
2021/12/11 07:40:34;;;;;;;319.67;45.42;;;;;;;;;;4976083;23;20131;-74
2021/12/11 07:43:22;;;;;;;338.35;49.67;;;;;;;;;;4939413;28;20047;-81
2021/12/11 07:48:44;;;;;;;158.55;43.00;;;;;;;;;;5625170;23;20063;-79
2021/12/11 07:51:33;;;;;;;152.50;38.30;;;;;;;;;;4988677;28;20102;-78
2021/12/11 07:54:48;;;;;;;206.30;39.33;;;;;;;;;;4997318;28;20094;-79
2021/12/11 07:57:24;;;;;;;202.88;44.35;;;;;;;;;;4934856;29;20040;-76
2021/12/11 07:59:50;;;;;;;211.75;40.70;;;;;;;;;;4901829;29;20065;-73
2021/12/11 08:27:22;;;;;;;96.22;33.88;;;;;;;;;;4937252;29;20039;-78
2021/12/11 10:57:47;;;;;;;81.95;36.95;;;;;;;;;;5533818;23;20089;-77
2021/12/11 11:00:18;;;;;;;74.75;39.22;;;;;;;;;;4922169;29;20047;-77
2021/12/11 11:02:45;;;;;;;97.85;41.92;;;;;;;;;;4926616;29;20031;-77
2021/12/11 11:05:17;;;;;;;69.80;34.47;;;;;;;;;;4938013;29;20546;-78
2021/12/11 11:07:43;;;;;;;79.15;36.75;;;;;;;;;;4932121;29;20032;-78
2021/12/11 11:10:13;;;;;;;66.60;32.25;;;;;;;;;;4924791;29;20067;-79
2021/12/11 11:12:53;;;;;;;81.65;34.17;;;;;;;;;;4919530;29;20056;-80
2021/12/11 11:15:21;;;;;;;70.75;32.88;;;;;;;;;;4948297;29;20032;-76
2021/12/11 11:18:03;;;;;;;78.55;34.95;;;;;;;;;;4923736;29;20028;-80
2021/12/11 11:20:36;;;;;;;79.05;36.78;;;;;;;;;;5058966;23;20051;-78
2021/12/11 11:23:07;;;;;;;68.43;36.28;;;;;;;;;;4962044;28;20085;-78
2021/12/11 11:25:35;;;;;;;73.78;36.58;;;;;;;;;;4965423;28;20057;-78
2021/12/11 11:33:43;;;;;;;86.68;42.58;;;;;;;;;;5059443;23;20047;-77
2021/12/11 11:36:12;;;;;;;78.57;40.55;;;;;;;;;;4962707;28;20050;-79
2021/12/11 11:38:44;;;;;;;78.90;39.60;;;;;;;;;;4960332;28;20082;-78
2021/12/11 11:41:15;;;;;;;78.55;40.63;;;;;;;;;;4974786;28;20042;-78
2021/12/11 11:43:42;;;;;;;85.20;43.60;;;;;;;;;;4955981;28;20053;-79
2021/12/11 11:46:10;;;;;;;82.18;41.63;;;;;;;;;;4965483;28;20038;-79
2021/12/11 11:48:38;;;;;;;80.28;42.10;;;;;;;;;;4979126;28;20033;-78
2021/12/11 11:51:07;;;;;;;91.03;43.97;;;;;;;;;;4980931;28;20099;-78
2021/12/11 11:53:53;;;;;;;;;;;;;;;;;;4986528;28;20026;-80
2021/12/11 11:56:25;;;;;;;93.75;45.17;;;;;;;;;;4971364;28;19969;-78
2021/12/11 11:58:54;;;;;;;91.80;44.70;;;;;;;;;;4961514;28;20030;-79
2021/12/11 12:07:03;;;;;;;118.43;52.30;;;;;;;;;;4957081;28;20107;-78
2021/12/11 12:10:03;;;;;;;97.65;47.70;;;;;;;;;;4934670;28;20082;-79
2021/12/11 12:12:55;;;;;;;114.13;49.38;;;;;;;;;;4966889;28;20020;-80
2021/12/11 12:15:44;;;;;;;102.35;47.70;;;;;;;;;;4880003;29;20062;-77
2021/12/11 12:18:12;;;;;;;107.22;50.53;;;;;;;;;;4869487;29;20065;-80
2021/12/11 12:20:44;;;;;;;112.03;51.15;;;;;;;;;;4867294;29;20033;-80
2021/12/11 12:23:12;;;;;;;108.00;50.75;;;;;;;;;;4894956;29;20078;-78
2021/12/11 12:25:43;;;;;;;105.10;50.30;;;;;;;;;;4875885;29;20037;-76
2021/12/11 12:28:15;;;;;;;113.97;52.85;;;;;;;;;;4886259;29;20066;-81
2021/12/11 12:31:01;;;;;;;106.55;48.53;;;;;;;;;;4815492;29;20042;-77
2021/12/11 12:33:28;;;;;;;121.00;51.13;;;;;;;;;;4803458;29;20047;-78
2021/12/11 12:35:54;;;;;;;120.05;52.22;;;;;;;;;;4792119;29;20035;-77
2021/12/11 12:38:26;;;;;;;112.28;50.58;;;;;;;;;;4820073;29;20038;-75
2021/12/11 13:07:12;;;;;;;50.28;26.00;;;;;;;;;;5658922;23;20022;-78
2021/12/11 13:10:17;;;;;;;66.97;35.50;;;;;;;;;;5000038;28;20026;-78
2021/12/11 13:12:54;;;;;;;63.40;33.88;;;;;;;;;;4984356;28;20043;-78
2021/12/11 13:15:24;;;;;;;79.88;40.17;;;;;;;;;;4963291;29;20013;-78
2021/12/11 13:17:52;;;;;;;94.00;46.60;;;;;;;;;;4956952;29;20122;-78
2021/12/11 13:20:24;;;;;;;103.68;50.10;;;;;;;;;;4975009;28;20028;-77
2021/12/11 13:22:51;;;;;;;108.53;53.17;;;;;;;;;;4960148;28;20034;-77
2021/12/11 13:25:41;;;;;;;113.47;54.17;;;;;;;;;;4973306;28;20046;-77
2021/12/11 13:28:08;;;;;;;103.03;50.75;;;;;;;;;;4959097;28;20066;-77
2021/12/11 13:30:47;;;;;;;95.25;46.83;;;;;;;;;;4988058;28;20062;-77
2021/12/11 13:33:23;;;;;;;126.60;58.05;;;;;;;;;;4992042;28;20018;-77
2021/12/11 13:35:56;;;;;;;111.32;53.08;;;;;;;;;;4961036;28;20058;-77
2021/12/11 13:38:23;;;;;;;132.33;57.87;;;;;;;;;;4966301;28;20042;-77
2021/12/11 13:40:55;;;;;;;144.93;63.50;;;;;;;;;;4989762;28;20098;-78
2021/12/11 13:43:21;;;;;;;126.35;58.58;;;;;;;;;;4961627;28;20050;-77
2021/12/11 13:45:51;;;;;;;130.98;61.33;;;;;;;;;;4980224;28;20058;-77
2021/12/11 13:48:20;;;;;;;137.85;61.78;;;;;;;;;;4972708;28;20003;-78
2021/12/11 13:50:55;;;;;;;147.95;64.35;;;;;;;;;;4973438;28;20031;-78
2021/12/11 13:53:23;;;;;;;152.38;65.60;;;;;;;;;;4984983;28;20034;-77
2021/12/11 13:55:50;;;;;;;157.90;64.63;;;;;;;;;;4993306;28;20038;-78
2021/12/11 13:58:18;;;;;;;148.40;64.55;;;;;;;;;;4997795;28;20011;-77
2021/12/11 14:00:54;;;;;;;169.32;71.13;;;;;;;;;;5013287;23;20034;-78
2021/12/11 14:03:22;;;;;;;159.40;67.10;;;;;;;;;;5011104;23;20071;-78
2021/12/11 14:05:50;;;;;;;159.07;64.88;;;;;;;;;;4945839;28;20034;-79
2021/12/11 14:08:17;;;;;;;170.57;68.03;;;;;;;;;;4952812;28;20167;-78
2021/12/11 14:10:47;;;;;;;166.35;65.35;;;;;;;;;;4982645;28;20064;-78
2021/12/11 14:13:17;;;;;;;202.45;72.97;;;;;;;;;;4982559;28;20019;-77
2021/12/11 14:16:04;;;;;;;187.88;72.32;;;;;;;;;;4949326;28;20087;-77
2021/12/11 14:19:02;;;;;;;176.07;66.60;;;;;;;;;;4977175;28;20036;-77
2021/12/11 14:22:01;;;;;;;177.93;70.72;;;;;;;;;;4923767;29;20028;-77
2021/12/11 14:25:00;;;;;;;150.07;54.95;;;;;;;;;;4895039;29;20092;-77
2021/12/11 14:27:38;;;;;;;165.32;60.92;;;;;;;;;;4920526;29;20024;-77
2021/12/11 14:30:28;;;;;;;134.40;50.72;;;;;;;;;;5267692;23;20077;-78
2021/12/11 14:32:54;;;;;;;161.93;58.70;;;;;;;;;;4984384;28;20007;-77
2021/12/11 14:35:40;;;;;;;144.50;54.28;;;;;;;;;;4983105;28;20098;-77
2021/12/11 14:38:12;;;;;;;177.73;60.47;;;;;;;;;;4992420;28;20028;-77
2021/12/11 14:40:57;;;;;;;159.82;57.75;;;;;;;;;;4986702;28;20050;-78
2021/12/11 14:43:30;;;;;;;150.27;49.58;;;;;;;;;;4993517;28;20058;-77
2021/12/11 14:45:57;;;;;;;150.50;52.13;;;;;;;;;;4958383;28;20023;-77
2021/12/11 14:48:29;;;;;;;160.07;56.83;;;;;;;;;;4975357;28;20030;-77
2021/12/11 14:50:57;;;;;;;177.20;55.30;;;;;;;;;;4960483;28;20038;-77
2021/12/11 14:53:26;;;;;;;156.38;56.70;;;;;;;;;;4957910;29;20031;-77
2021/12/11 14:55:58;;;;;;;158.43;55.15;;;;;;;;;;4984164;28;20056;-77
2021/12/11 14:58:25;;;;;;;180.35;56.40;;;;;;;;;;4958119;28;20018;-77
2021/12/11 15:01:14;;;;;;;159.13;55.00;;;;;;;;;;4976553;29;20059;-77
2021/12/11 15:03:41;;;;;;;167.18;55.20;;;;;;;;;;4911519;29;20056;-77
2021/12/11 15:06:11;;;;;;;133.30;44.60;;;;;;;;;;4917823;29;20100;-77
2021/12/11 15:09:17;;;;;;;128.02;48.47;;;;;;;;;;4918022;29;20028;-77
2021/12/11 15:12:15;;;;;;;138.98;48.00;;;;;;;;;;4919733;29;20021;-76
2021/12/11 15:14:50;;;;;;;133.98;47.28;;;;;;;;;;4880563;29;20045;-77
2021/12/11 15:20:28;;;;;;;106.47;40.17;;;;;;;;;;4884951;29;20025;-77
2021/12/11 15:22:58;;;;;;;133.40;46.60;;;;;;;;;;4885851;29;20029;-77
2021/12/11 15:25:26;;;;;;;115.18;42.10;;;;;;;;;;4885781;29;20074;-76
2021/12/11 15:27:53;;;;;;;135.45;45.08;;;;;;;;;;4884010;29;20029;-77
2021/12/11 15:30:31;;;;;;;98.88;34.67;;;;;;;;;;4882526;29;20041;-77
2021/12/11 15:33:02;;;;;;;139.35;48.22;;;;;;;;;;4881208;29;20078;-76
2021/12/11 15:35:39;;;;;;;134.00;45.60;;;;;;;;;;4882890;29;20207;-76
2021/12/11 15:38:06;;;;;;;136.98;43.85;;;;;;;;;;4860580;29;20065;-77
2021/12/11 15:40:34;;;;;;;149.05;47.58;;;;;;;;;;4898876;29;20040;-77
2021/12/11 15:43:02;;;;;;;147.25;46.17;;;;;;;;;;4910044;29;20016;-76
2021/12/11 15:45:29;;;;;;;150.10;47.53;;;;;;;;;;4928706;29;20056;-77
2021/12/11 15:47:58;;;;;;;135.55;42.08;;;;;;;;;;4941848;29;20019;-76
2021/12/11 15:50:48;;;;;;;144.48;45.80;;;;;;;;;;4942658;29;20008;-76
2021/12/11 15:53:18;;;;;;;172.68;49.53;;;;;;;;;;4951764;29;20023;-76
2021/12/11 15:55:52;;;;;;;146.93;47.38;;;;;;;;;;4955454;29;20036;-76
2021/12/11 15:58:19;;;;;;;136.32;43.80;;;;;;;;;;4941400;29;20072;-77
2021/12/11 16:01:04;;;;;;;150.40;48.25;;;;;;;;;;4945789;29;20059;-77
2021/12/11 16:03:40;;;;;;;123.40;41.22;;;;;;;;;;4958170;28;20020;-77
2021/12/11 16:06:32;;;;;;;159.05;46.65;;;;;;;;;;4943216;29;20048;-77
2021/12/11 16:09:09;;;;;;;145.65;40.05;;;;;;;;;;4950580;29;20047;-77
2021/12/11 16:11:55;;;;;;;123.20;38.67;;;;;;;;;;4924711;29;20048;-77
2021/12/11 16:14:23;;;;;;;133.43;44.45;;;;;;;;;;4937168;29;20043;-77
2021/12/11 16:16:55;;;;;;;138.45;44.42;;;;;;;;;;4935244;29;20067;-77
2021/12/11 16:19:39;;;;;;;120.35;37.58;;;;;;;;;;4942256;29;20012;-77
2021/12/11 16:22:19;;;;;;;137.05;42.17;;;;;;;;;;4924552;29;20039;-77
2021/12/11 16:24:47;;;;;;;153.70;44.72;;;;;;;;;;4939991;29;20032;-77
2021/12/11 16:27:24;;;;;;;141.25;44.78;;;;;;;;;;4936179;29;20024;-77
2021/12/11 16:29:51;;;;;;;142.48;42.47;;;;;;;;;;4944990;28;20062;-77
2021/12/11 16:32:22;;;;;;;145.68;46.10;;;;;;;;;;4962607;28;20084;-77
2021/12/11 16:34:54;;;;;;;143.88;44.00;;;;;;;;;;4970379;28;20039;-77
2021/12/11 16:37:34;;;;;;;128.18;40.97;;;;;;;;;;4969011;28;20051;-77
2021/12/11 16:40:06;;;;;;;135.95;42.97;;;;;;;;;;4967746;28;20105;-77
2021/12/11 16:43:03;;;;;;;152.73;45.13;;;;;;;;;;4971464;28;20022;-77
2021/12/11 16:45:41;;;;;;;164.48;48.80;;;;;;;;;;4938782;29;20088;-76
2021/12/11 16:48:28;;;;;;;144.68;42.65;;;;;;;;;;4913536;29;20016;-77
2021/12/11 16:50:54;;;;;;;143.55;46.40;;;;;;;;;;4931937;29;20021;-77
2021/12/11 16:53:27;;;;;;;156.10;48.78;;;;;;;;;;4939712;29;20043;-77
2021/12/11 16:55:53;;;;;;;158.77;48.13;;;;;;;;;;4939466;29;20076;-76
2021/12/11 16:58:25;;;;;;;184.27;47.35;;;;;;;;;;4935143;29;20017;-77
2021/12/11 17:00:53;;;;;;;187.65;49.63;;;;;;;;;;4920069;29;20024;-77
2021/12/11 17:03:26;;;;;;;162.23;45.45;;;;;;;;;;4932850;29;20044;-77
2021/12/11 17:06:12;;;;;;;195.75;49.47;;;;;;;;;;4935435;29;20100;-77
2021/12/11 17:09:02;;;;;;;181.75;50.00;;;;;;;;;;4935719;29;20049;-78
2021/12/11 17:11:35;;;;;;;161.45;44.80;;;;;;;;;;4922840;29;20057;-77
2021/12/11 17:14:01;;;;;;;187.35;49.47;;;;;;;;;;4911164;29;20033;-77
2021/12/11 17:16:37;;;;;;;161.23;46.85;;;;;;;;;;4940933;29;20035;-77
2021/12/11 17:19:06;;;;;;;167.55;46.25;;;;;;;;;;4960667;29;20039;-77
2021/12/11 17:21:53;;;;;;;129.80;35.13;;;;;;;;;;4967425;29;20035;-77
2021/12/11 17:24:58;;;;;;;206.90;51.20;;;;;;;;;;4961054;29;20043;-77
2021/12/11 17:27:24;;;;;;;216.98;54.35;;;;;;;;;;4934865;29;20060;-77
2021/12/11 17:30:11;;;;;;;209.85;54.08;;;;;;;;;;4942989;28;20058;-77
2021/12/11 17:32:37;;;;;;;207.20;54.95;;;;;;;;;;4928451;29;20044;-77
2021/12/11 17:35:04;;;;;;;207.75;55.72;;;;;;;;;;4938291;28;20040;-77
2021/12/11 17:37:30;;;;;;;245.20;57.88;;;;;;;;;;4921516;29;20116;-77
2021/12/11 17:40:00;;;;;;;204.05;55.35;;;;;;;;;;4933905;29;20052;-76
2021/12/11 17:42:28;;;;;;;217.65;53.97;;;;;;;;;;4938930;29;20012;-77
2021/12/11 17:44:58;;;;;;;163.35;47.08;;;;;;;;;;4942474;28;20068;-76
2021/12/11 17:47:50;;;;;;;172.73;45.72;;;;;;;;;;4936001;29;20107;-77
2021/12/11 17:50:27;;;;;;;167.40;44.97;;;;;;;;;;4939077;28;20043;-77
2021/12/11 17:52:54;;;;;;;188.75;47.17;;;;;;;;;;4936948;28;20036;-77
2021/12/11 17:55:27;;;;;;;177.88;50.13;;;;;;;;;;4941862;28;20020;-77
2021/12/11 17:58:14;;;;;;;220.25;54.53;;;;;;;;;;4916474;29;20036;-78
2021/12/11 18:00:53;;;;;;;204.13;54.92;;;;;;;;;;4930558;28;20040;-80
2021/12/11 18:04:15;;;;;;;211.10;52.15;;;;;;;;;;4942416;29;20037;-77
2021/12/11 18:07:22;;;;;;;205.30;51.83;;;;;;;;;;4923441;29;20048;-77
2021/12/11 18:10:10;;;;;;;192.07;48.83;;;;;;;;;;4918748;29;20052;-76
2021/12/11 18:13:06;;;;;;;200.13;52.05;;;;;;;;;;4919444;29;20096;-77
2021/12/11 18:15:45;;;;;;;209.40;49.63;;;;;;;;;;4921786;29;20045;-77
2021/12/11 18:19:00;;;;;;;205.90;50.15;;;;;;;;;;4883325;29;20044;-77
2021/12/11 18:21:29;;;;;;;186.07;48.65;;;;;;;;;;4860452;29;20045;-77
2021/12/11 18:23:55;;;;;;;144.85;45.53;;;;;;;;;;4869464;29;20032;-77
2021/12/11 18:26:23;;;;;;;166.35;48.83;;;;;;;;;;4872204;29;20046;-77
2021/12/11 18:28:56;;;;;;;163.10;47.25;;;;;;;;;;4864026;29;20071;-77
2021/12/11 18:31:37;;;;;;;183.15;51.60;;;;;;;;;;4865163;29;20079;-77
2021/12/11 18:34:28;;;;;;;179.13;52.08;;;;;;;;;;4834676;29;20160;-76
2021/12/11 18:36:57;;;;;;;167.65;51.40;;;;;;;;;;4866135;29;20101;-76
2021/12/11 18:39:48;;;;;;;153.45;48.67;;;;;;;;;;4860604;29;20013;-77
2021/12/11 18:42:53;;;;;;;162.93;48.65;;;;;;;;;;4918357;29;20068;-77
2021/12/11 18:45:24;;;;;;;145.48;46.72;;;;;;;;;;4905598;29;20060;-77
2021/12/11 18:47:54;;;;;;;155.15;48.28;;;;;;;;;;4918540;29;20040;-77
2021/12/11 18:50:34;;;;;;;144.50;46.75;;;;;;;;;;4915134;29;20112;-77
2021/12/11 18:53:00;;;;;;;136.02;44.45;;;;;;;;;;4919869;29;20056;-77
2021/12/11 18:55:28;;;;;;;157.02;46.67;;;;;;;;;;4961610;29;20027;-77
2021/12/11 18:58:08;;;;;;;142.82;44.00;;;;;;;;;;4960427;29;20008;-77
2021/12/11 19:01:00;;;;;;;146.63;45.67;;;;;;;;;;4945839;29;20050;-77
2021/12/11 19:03:29;;;;;;;132.07;45.80;;;;;;;;;;4959105;29;20023;-77
2021/12/11 19:06:08;;;;;;;145.07;48.00;;;;;;;;;;4975210;28;20024;-77
2021/12/11 19:08:35;;;;;;;130.60;44.13;;;;;;;;;;4957075;28;20039;-77
2021/12/11 19:11:05;;;;;;;132.60;45.60;;;;;;;;;;4978694;28;20039;-76
2021/12/11 19:13:32;;;;;;;140.63;45.45;;;;;;;;;;4954466;28;20066;-77
2021/12/11 19:16:05;;;;;;;139.40;46.60;;;;;;;;;;4965887;28;20016;-77
2021/12/11 19:19:01;;;;;;;140.85;48.78;;;;;;;;;;4966785;29;20031;-77
2021/12/11 19:21:51;;;;;;;146.05;46.60;;;;;;;;;;4947140;29;20032;-76
2021/12/11 19:24:22;;;;;;;133.00;48.90;;;;;;;;;;4953431;29;20135;-77
2021/12/11 19:27:02;;;;;;;137.23;47.75;;;;;;;;;;4944109;29;20066;-76
2021/12/11 19:29:50;;;;;;;134.50;46.53;;;;;;;;;;4961361;29;20051;-76
2021/12/11 19:32:38;;;;;;;141.60;46.58;;;;;;;;;;4947260;29;20082;-77
2021/12/11 19:35:05;;;;;;;136.00;50.30;;;;;;;;;;4944186;29;20067;-76
2021/12/11 19:37:32;;;;;;;137.52;45.95;;;;;;;;;;4948187;29;20052;-77
2021/12/11 19:40:07;;;;;;;164.43;48.15;;;;;;;;;;4953527;29;20016;-77
2021/12/11 19:42:36;;;;;;;156.50;50.75;;;;;;;;;;4950642;29;20050;-77
2021/12/11 19:45:32;;;;;;;161.43;51.60;;;;;;;;;;4952913;29;20048;-77
2021/12/11 19:48:04;;;;;;;147.35;50.75;;;;;;;;;;4953590;29;20119;-77
2021/12/11 19:51:08;;;;;;;156.18;49.72;;;;;;;;;;4934761;29;20055;-77
2021/12/11 19:53:44;;;;;;;152.90;47.78;;;;;;;;;;4968675;28;20070;-77
2021/12/11 19:56:13;;;;;;;157.70;50.55;;;;;;;;;;4962081;28;20074;-77
2021/12/11 19:58:44;;;;;;;165.63;48.40;;;;;;;;;;4976633;29;20035;-77
2021/12/11 20:01:15;;;;;;;149.55;49.50;;;;;;;;;;4975479;29;20011;-77
2021/12/11 20:03:41;;;;;;;159.35;49.33;;;;;;;;;;4974805;28;20039;-77
2021/12/11 20:06:18;;;;;;;162.98;49.50;;;;;;;;;;4960585;29;20019;-77
2021/12/11 20:09:04;;;;;;;143.02;48.35;;;;;;;;;;4953739;29;20043;-77
2021/12/11 20:11:51;;;;;;;155.65;48.88;;;;;;;;;;4974231;29;20099;-77
2021/12/11 20:14:18;;;;;;;151.18;52.17;;;;;;;;;;4960491;29;20062;-77